Time;durP1;ratioP1;P1;durP2;ratioP2;P2;SDS_P1;SDS_P2;PMS_P1;PMS_P2;Temp;Humidity;BMP_temperature;BMP_pressure;BME280_temperature;BME280_humidity;BME280_pressure;Samples;Min_cycle;Max_cycle;Signal;HPM_P1;HPM_P2
2022/01/26 00:06:19;;;;;;;4.10;3.60;;;3.30;99.90;;;;;;5012631;28;20084;-75
2022/01/26 00:08:45;;;;;;;23.77;7.75;;;3.30;99.90;;;;;;5008232;28;20088;-75
2022/01/26 00:11:10;;;;;;;4.38;3.17;;;3.30;99.90;;;;;;5006986;28;20517;-75
2022/01/26 00:13:36;;;;;;;17.92;6.35;;;3.30;99.90;;;;;;5009908;28;20041;-75
2022/01/26 00:16:05;;;;;;;28.90;10.88;;;3.30;99.90;;;;;;5010434;28;20042;-75
2022/01/26 00:18:34;;;;;;;43.80;15.00;;;3.30;99.90;;;;;;5009633;28;20060;-75
2022/01/26 00:21:16;;;;;;;22.70;9.90;;;3.30;99.90;;;;;;5006052;28;20077;-75
2022/01/26 00:26:36;;;;;;;7.95;5.25;;;3.30;99.90;;;;;;5010425;28;20481;-75
2022/01/26 00:39:51;;;;;;;41.92;5.90;;;3.20;99.90;;;;;;5025920;28;20053;-75
2022/01/26 00:42:16;;;;;;;26.50;10.38;;;3.20;99.90;;;;;;5017442;28;20042;-75
2022/01/26 00:44:46;;;;;;;12.60;5.50;;;3.20;99.90;;;;;;5006191;28;20116;-75
2022/01/26 00:47:12;;;;;;;7.53;4.25;;;3.20;99.90;;;;;;5002747;28;20058;-75
2022/01/26 00:49:38;;;;;;;21.20;7.47;;;3.20;99.90;;;;;;5014852;28;20068;-75
2022/01/26 00:52:06;;;;;;;12.63;7.45;;;3.20;99.90;;;;;;5008699;28;20049;-75
2022/01/26 00:54:32;;;;;;;9.98;4.43;;;3.20;99.90;;;;;;5008282;28;20045;-75
2022/01/26 00:56:57;;;;;;;9.68;4.75;;;3.10;99.90;;;;;;5010047;28;20037;-75
2022/01/26 00:59:23;;;;;;;32.10;14.90;;;3.20;99.90;;;;;;4999526;28;20257;-75
2022/01/26 01:01:49;;;;;;;22.98;7.18;;;3.20;99.90;;;;;;5020476;28;20532;-75
2022/01/26 01:04:14;;;;;;;15.50;7.68;;;3.20;99.90;;;;;;5024128;28;20124;-75
2022/01/26 01:07:01;;;;;;;44.17;14.35;;;3.20;99.90;;;;;;4998982;28;20061;-75
2022/01/26 01:09:32;;;;;;;27.67;10.65;;;3.20;99.90;;;;;;5025833;28;20038;-75
2022/01/26 01:11:58;;;;;;;11.50;5.50;;;3.20;99.90;;;;;;5019813;28;20041;-75
2022/01/26 01:14:25;;;;;;;17.63;5.10;;;3.20;99.90;;;;;;5006990;28;20458;-75
2022/01/26 01:16:53;;;;;;;69.05;21.25;;;3.20;99.90;;;;;;4994225;28;20422;-75
2022/01/26 01:19:36;;;;;;;24.27;10.70;;;3.20;99.90;;;;;;4998036;28;20049;-75
2022/01/26 01:30:28;;;;;;;8.88;4.57;;;3.20;99.90;;;;;;4987472;28;20057;-75
2022/01/26 01:33:05;;;;;;;9.95;6.95;;;3.20;99.90;;;;;;4988355;28;20120;-75
2022/01/26 01:35:34;;;;;;;7.95;4.03;;;3.10;99.90;;;;;;4985799;28;20142;-75
2022/01/26 01:38:08;;;;;;;15.60;6.47;;;3.10;99.90;;;;;;4987199;28;20133;-75
2022/01/26 01:40:34;;;;;;;6.05;5.50;;;3.10;99.90;;;;;;5001576;28;20046;-75
2022/01/26 01:42:59;;;;;;;15.45;9.15;;;3.20;99.90;;;;;;4974183;28;20081;-75
2022/01/26 01:45:34;;;;;;;7.38;4.20;;;3.20;99.90;;;;;;4990046;28;20100;-75
2022/01/26 01:48:00;;;;;;;9.43;4.53;;;3.10;99.90;;;;;;5003962;28;20053;-75
2022/01/26 01:50:25;;;;;;;15.27;6.35;;;3.10;99.90;;;;;;4991428;28;20045;-75
2022/01/26 01:52:58;;;;;;;8.50;4.47;;;3.10;99.90;;;;;;4987124;28;20133;-75
2022/01/26 01:55:27;;;;;;;64.53;16.13;;;3.20;99.90;;;;;;4990591;28;20136;-75
2022/01/26 01:57:53;;;;;;;9.23;6.63;;;3.20;99.90;;;;;;4984893;28;20129;-75
2022/01/26 02:00:18;;;;;;;17.65;7.43;;;3.20;99.90;;;;;;4974713;28;20125;-75
2022/01/26 02:02:44;;;;;;;12.50;5.55;;;3.10;99.90;;;;;;5000572;28;20058;-75
2022/01/26 02:05:10;;;;;;;17.02;7.68;;;3.20;99.90;;;;;;5011662;28;20123;-75
2022/01/26 02:07:36;;;;;;;14.13;7.97;;;3.20;99.90;;;;;;5006803;28;20048;-75
2022/01/26 02:10:03;;;;;;;11.38;6.57;;;3.20;99.90;;;;;;5011491;28;20037;-75
2022/01/26 02:12:31;;;;;;;34.90;10.95;;;3.20;99.90;;;;;;5012590;28;20045;-75
2022/01/26 02:15:06;;;;;;;17.83;6.32;;;3.20;99.90;;;;;;5001978;28;20042;-75
2022/01/26 02:21:04;;;;;;;9.73;5.80;;;3.20;99.90;;;;;;5029422;28;20139;-75
2022/01/26 02:55:40;;;;;;;13.57;6.85;;;3.20;99.90;;;;;;5026907;28;20543;-75
2022/01/26 03:01:03;;;;;;;6.85;5.15;;;3.10;99.90;;;;;;5018228;28;20480;-75
2022/01/26 03:03:35;;;;;;;14.25;7.80;;;3.20;99.90;;;;;;5013608;28;20045;-75
2022/01/26 03:06:03;;;;;;;11.52;7.28;;;3.20;99.90;;;;;;5010563;28;20095;-74
2022/01/26 03:08:34;;;;;;;16.15;8.80;;;3.10;99.90;;;;;;5027972;28;20045;-75
2022/01/26 03:11:04;;;;;;;19.10;6.22;;;3.10;99.90;;;;;;5023383;28;20045;-75
2022/01/26 03:13:33;;;;;;;29.15;9.27;;;3.20;99.90;;;;;;5027348;28;20457;-75
2022/01/26 03:16:05;;;;;;;6.97;5.40;;;3.10;99.90;;;;;;5009726;28;20037;-75
2022/01/26 03:21:17;;;;;;;26.23;9.43;;;3.10;99.90;;;;;;5013787;28;20061;-75
2022/01/26 03:29:15;;;;;;;16.10;7.40;;;3.10;99.90;;;;;;5010712;28;20049;-75
2022/01/26 03:34:25;;;;;;;2.80;1.98;;;3.10;99.90;;;;;;5041197;28;20060;-75
2022/01/26 03:39:19;;;;;;;10.52;5.00;;;3.10;99.90;;;;;;5027717;28;20088;-75
2022/01/26 03:41:54;;;;;;;7.85;3.70;;;3.10;99.90;;;;;;5010393;28;20114;-75
2022/01/26 03:44:20;;;;;;;8.20;4.07;;;3.10;99.90;;;;;;5007639;28;20041;-75
2022/01/26 03:46:47;;;;;;;18.83;5.47;;;3.10;99.90;;;;;;5008870;28;20046;-75
2022/01/26 03:49:13;;;;;;;4.40;2.58;;;3.10;99.90;;;;;;5012582;28;20042;-75
2022/01/26 03:51:40;;;;;;;1.25;1.15;;;3.10;99.90;;;;;;5026508;28;20044;-75
2022/01/26 03:54:06;;;;;;;5.05;4.10;;;3.10;99.90;;;;;;5017582;28;20073;-75
2022/01/26 03:56:33;;;;;;;18.08;7.90;;;3.10;99.90;;;;;;4994797;28;20045;-75
2022/01/26 03:58:58;;;;;;;7.88;5.40;;;3.10;99.90;;;;;;5018828;28;20045;-75
2022/01/26 04:01:24;;;;;;;22.00;11.10;;;3.10;99.90;;;;;;4997663;28;20755;-75
2022/01/26 04:03:50;;;;;;;6.95;4.80;;;3.10;99.90;;;;;;5007085;28;20050;-75
2022/01/26 04:06:16;;;;;;;47.28;15.93;;;3.10;99.90;;;;;;5020704;28;20042;-75
2022/01/26 04:08:43;;;;;;;18.33;8.02;;;3.10;99.90;;;;;;5013475;28;20121;-75
2022/01/26 04:13:41;;;;;;;18.40;8.65;;;3.00;99.90;;;;;;5017004;28;20056;-75
2022/01/26 04:16:08;;;;;;;4.18;3.15;;;3.10;99.90;;;;;;5006657;28;20034;-75
2022/01/26 04:18:37;;;;;;;17.40;7.72;;;3.10;99.90;;;;;;5023114;28;20148;-75
2022/01/26 04:23:52;;;;;;;14.02;8.38;;;3.10;99.90;;;;;;5026464;28;20115;-75
2022/01/26 04:26:23;;;;;;;24.30;8.45;;;3.10;99.90;;;;;;5026189;28;20091;-75
2022/01/26 04:28:57;;;;;;;19.33;8.43;;;3.10;99.90;;;;;;5008284;28;20183;-75
2022/01/26 04:31:23;;;;;;;4.65;3.05;;;3.00;99.90;;;;;;5026022;28;20064;-75
2022/01/26 04:33:50;;;;;;;18.17;7.25;;;3.10;99.90;;;;;;5007530;28;20405;-75
2022/01/26 04:36:22;;;;;;;25.58;9.25;;;3.10;99.90;;;;;;5020520;28;20050;-75
2022/01/26 04:38:53;;;;;;;9.10;6.32;;;3.00;99.90;;;;;;4990995;28;20048;-75
2022/01/26 04:43:50;;;;;;;7.32;4.78;;;3.00;99.90;;;;;;5020281;28;20057;-75
2022/01/26 04:46:16;;;;;;;32.95;11.52;;;3.00;99.90;;;;;;4991871;28;20044;-76
2022/01/26 04:48:41;;;;;;;26.63;11.52;;;3.00;99.90;;;;;;5008870;28;20517;-75
2022/01/26 04:51:07;;;;;;;4.00;2.10;;;3.00;99.90;;;;;;5009887;28;20102;-75
2022/01/26 04:53:32;;;;;;;39.42;11.60;;;3.00;99.90;;;;;;5006218;28;20167;-75
2022/01/26 04:55:58;;;;;;;31.60;8.82;;;3.00;99.90;;;;;;5009950;28;20103;-75
2022/01/26 04:58:24;;;;;;;20.70;8.65;;;3.00;99.90;;;;;;5022598;28;20490;-75
2022/01/26 05:00:49;;;;;;;18.27;8.75;;;3.00;99.90;;;;;;5007000;28;20121;-75
2022/01/26 05:03:15;;;;;;;26.83;11.18;;;3.00;99.90;;;;;;5025035;28;20077;-75
2022/01/26 05:05:41;;;;;;;22.73;8.50;;;3.00;99.90;;;;;;5024969;28;20486;-75
2022/01/26 05:08:06;;;;;;;8.80;4.40;;;3.00;99.90;;;;;;5008787;28;20346;-75
2022/01/26 05:10:32;;;;;;;15.60;7.88;;;2.90;99.90;;;;;;5014884;28;20054;-75
2022/01/26 05:12:58;;;;;;;20.30;8.63;;;2.90;99.90;;;;;;5008274;28;20045;-75
2022/01/26 05:15:25;;;;;;;17.35;7.65;;;2.90;99.90;;;;;;5009596;28;20180;-75
2022/01/26 05:17:50;;;;;;;23.30;8.35;;;2.90;99.90;;;;;;5004398;28;20070;-75
2022/01/26 05:20:16;;;;;;;42.28;14.07;;;2.90;99.90;;;;;;5003058;28;20083;-75
2022/01/26 05:22:44;;;;;;;51.65;7.72;;;2.90;99.90;;;;;;5029689;28;20089;-75
2022/01/26 05:25:11;;;;;;;8.25;4.40;;;2.90;99.90;;;;;;5030128;28;20049;-75
2022/01/26 05:27:38;;;;;;;20.30;9.13;;;2.90;99.90;;;;;;5012159;28;20034;-75
2022/01/26 05:30:05;;;;;;;14.48;7.07;;;2.90;99.90;;;;;;5013425;28;20052;-75
2022/01/26 05:32:31;;;;;;;43.63;11.82;;;2.90;99.90;;;;;;5013154;28;20060;-75
2022/01/26 05:34:56;;;;;;;18.77;5.75;;;2.90;99.90;;;;;;5002647;28;20060;-75
2022/01/26 05:37:22;;;;;;;20.38;8.07;;;2.90;99.90;;;;;;5010367;28;20076;-75
2022/01/26 05:39:48;;;;;;;16.63;6.45;;;2.90;99.90;;;;;;5009629;28;20354;-75
2022/01/26 05:42:13;;;;;;;20.55;7.82;;;2.90;99.90;;;;;;5027056;28;20589;-75
2022/01/26 05:44:39;;;;;;;44.63;14.02;;;2.80;99.90;;;;;;5021749;28;20056;-75
2022/01/26 05:47:08;;;;;;;4.32;3.90;;;2.90;99.90;;;;;;5011228;28;20049;-75
2022/01/26 05:49:34;;;;;;;30.38;10.40;;;2.80;99.90;;;;;;5018746;28;20041;-75
2022/01/26 05:51:59;;;;;;;8.20;4.28;;;2.80;99.90;;;;;;5028716;28;20049;-75
2022/01/26 05:54:25;;;;;;;14.65;7.07;;;2.80;99.90;;;;;;5012539;28;20033;-75
2022/01/26 05:56:50;;;;;;;32.45;12.98;;;2.90;99.90;;;;;;5012551;28;20057;-75
2022/01/26 05:59:19;;;;;;;1.60;1.00;;;2.90;99.90;;;;;;5011717;28;20079;-75
2022/01/26 06:01:45;;;;;;;8.10;4.80;;;2.80;99.90;;;;;;5021361;28;20057;-75
2022/01/26 06:04:11;;;;;;;9.70;4.95;;;2.80;99.90;;;;;;5007430;28;20041;-75
2022/01/26 06:06:36;;;;;;;18.83;7.10;;;2.90;99.90;;;;;;5009069;28;20133;-75
2022/01/26 06:09:02;;;;;;;38.13;11.63;;;2.90;99.90;;;;;;4993885;28;20048;-75
2022/01/26 06:11:28;;;;;;;29.00;8.13;;;2.90;99.90;;;;;;4999838;28;20050;-75
2022/01/26 06:13:55;;;;;;;74.72;23.95;;;2.80;99.90;;;;;;4999060;28;20120;-75
2022/01/26 06:16:21;;;;;;;8.18;4.18;;;2.80;99.90;;;;;;4993619;28;20046;-75
2022/01/26 06:18:46;;;;;;;21.20;9.15;;;2.90;99.90;;;;;;5010763;28;20052;-75
2022/01/26 06:21:12;;;;;;;5.80;2.70;;;2.90;99.90;;;;;;5007597;28;20033;-75
2022/01/26 06:23:37;;;;;;;4.90;2.97;;;2.80;99.90;;;;;;5008310;28;20042;-75
2022/01/26 06:26:03;;;;;;;43.67;13.93;;;2.90;99.90;;;;;;4997076;28;20046;-75
2022/01/26 06:28:29;;;;;;;24.95;11.10;;;2.80;99.90;;;;;;5007214;28;20041;-75
2022/01/26 06:30:58;;;;;;;47.92;14.27;;;2.90;99.90;;;;;;5011657;28;20037;-75
2022/01/26 06:33:25;;;;;;;11.38;5.03;;;2.90;99.90;;;;;;5011309;28;20053;-75
2022/01/26 06:35:51;;;;;;;11.95;6.50;;;2.90;99.90;;;;;;5023458;28;20049;-75
2022/01/26 06:38:17;;;;;;;15.02;7.57;;;2.90;99.90;;;;;;5014242;28;20057;-75
2022/01/26 06:40:42;;;;;;;17.75;5.70;;;2.90;99.90;;;;;;4992824;28;20565;-75
2022/01/26 06:43:14;;;;;;;7.78;4.00;;;2.90;99.90;;;;;;5023351;28;20046;-75
2022/01/26 06:45:50;;;;;;;7.00;5.25;;;2.90;99.90;;;;;;4999880;28;20060;-75
2022/01/26 06:51:00;;;;;;;6.50;3.70;;;2.90;99.90;;;;;;5026461;28;20049;-75
2022/01/26 06:53:26;;;;;;;26.02;10.77;;;2.90;99.90;;;;;;5018176;28;20077;-75
2022/01/26 06:55:52;;;;;;;6.53;3.58;;;2.90;99.90;;;;;;4996801;28;20068;-75
2022/01/26 06:58:17;;;;;;;20.77;8.68;;;3.00;99.90;;;;;;5026915;28;20143;-75
2022/01/26 07:00:43;;;;;;;27.23;6.18;;;2.90;99.90;;;;;;5025381;28;20398;-75
2022/01/26 07:03:09;;;;;;;30.88;10.63;;;2.90;99.90;;;;;;4998039;28;20294;-75
2022/01/26 07:05:34;;;;;;;54.25;17.92;;;2.90;99.90;;;;;;5017521;28;20049;-75
2022/01/26 07:08:01;;;;;;;18.05;6.13;;;3.00;99.90;;;;;;5027126;28;20030;-75
2022/01/26 07:10:27;;;;;;;10.45;2.90;;;3.00;99.90;;;;;;5008843;28;20073;-75
2022/01/26 07:12:53;;;;;;;36.45;14.85;;;3.00;99.90;;;;;;5005270;28;20079;-75
2022/01/26 07:23:22;;;;;;;8.30;3.83;;;3.00;99.90;;;;;;5011110;28;20048;-75
2022/01/26 07:25:48;;;;;;;44.88;13.32;;;3.00;99.90;;;;;;5023759;28;20037;-75
2022/01/26 07:28:14;;;;;;;41.28;15.02;;;3.00;99.90;;;;;;5011366;28;20033;-74
2022/01/26 07:30:39;;;;;;;21.95;8.38;;;3.00;99.90;;;;;;5013334;28;20037;-75
2022/01/26 07:33:06;;;;;;;9.73;5.30;;;3.00;99.90;;;;;;5011587;28;20038;-75
2022/01/26 07:35:33;;;;;;;70.47;22.45;;;3.10;99.90;;;;;;5008742;28;20045;-75
2022/01/26 07:38:01;;;;;;;23.50;6.03;;;3.00;99.90;;;;;;5027007;28;20183;-75
2022/01/26 07:40:27;;;;;;;6.63;4.25;;;3.10;99.90;;;;;;5010286;28;20075;-75
2022/01/26 07:42:53;;;;;;;40.92;12.93;;;3.10;99.90;;;;;;5007509;28;20494;-75
2022/01/26 07:45:19;;;;;;;0.75;0.75;;;3.10;99.90;;;;;;5020667;28;20041;-75
2022/01/26 07:47:46;;;;;;;28.48;12.10;;;3.10;99.90;;;;;;5016755;28;20048;-75
2022/01/26 07:50:14;;;;;;;46.90;17.13;;;3.20;99.90;;;;;;5008913;28;20117;-75
2022/01/26 07:52:42;;;;;;;45.40;17.70;;;3.20;99.90;;;;;;5010474;28;20091;-75
2022/01/26 07:55:13;;;;;;;6.03;3.92;;;3.20;99.90;;;;;;5010000;28;20077;-75
2022/01/26 07:57:38;;;;;;;7.35;4.60;;;3.20;99.90;;;;;;5016510;28;20105;-75
2022/01/26 08:00:07;;;;;;;14.35;8.80;;;3.20;99.90;;;;;;5000679;28;20502;-75
2022/01/26 08:02:32;;;;;;;23.02;8.43;;;3.20;99.90;;;;;;5023612;28;20056;-75
2022/01/26 08:04:58;;;;;;;80.82;25.50;;;3.20;99.90;;;;;;5010853;28;20502;-76
2022/01/26 08:07:24;;;;;;;17.00;9.57;;;3.30;99.90;;;;;;5002880;28;20046;-75
2022/01/26 08:09:49;;;;;;;12.52;5.88;;;3.30;99.90;;;;;;5023369;28;20626;-75
2022/01/26 08:12:15;;;;;;;18.10;7.93;;;3.30;99.90;;;;;;5012627;28;20491;-75
2022/01/26 08:14:42;;;;;;;44.38;6.60;;;3.30;99.90;;;;;;5024911;28;20041;-75
2022/01/26 08:17:08;;;;;;;8.68;5.38;;;3.30;99.90;;;;;;5010196;28;20046;-75
2022/01/26 08:19:35;;;;;;;17.02;10.70;;;3.30;99.90;;;;;;5014346;28;20158;-75
2022/01/26 08:22:01;;;;;;;11.50;8.40;;;3.30;99.90;;;;;;5006849;28;20100;-75
2022/01/26 08:24:28;;;;;;;11.65;4.28;;;3.30;99.90;;;;;;4991413;28;20154;-75
2022/01/26 08:26:56;;;;;;;28.33;12.02;;;3.30;99.90;;;;;;5006168;28;20042;-75
2022/01/26 08:29:33;;;;;;;23.05;9.00;;;3.30;99.90;;;;;;4996641;28;20133;-75
2022/01/26 08:31:59;;;;;;;10.13;3.38;;;3.30;99.90;;;;;;4990890;28;20042;-75
2022/01/26 08:34:25;;;;;;;3.97;2.97;;;3.30;99.90;;;;;;4990750;28;20050;-75
2022/01/26 08:36:51;;;;;;;23.38;6.90;;;3.40;99.90;;;;;;5001858;28;20045;-75
2022/01/26 08:39:18;;;;;;;22.08;8.60;;;3.40;99.90;;;;;;4975223;28;20492;-74
2022/01/26 08:41:44;;;;;;;18.67;7.63;;;3.40;99.90;;;;;;5015119;28;20053;-75
2022/01/26 08:44:10;;;;;;;17.63;7.50;;;3.40;99.90;;;;;;5006415;28;20172;-74
2022/01/26 08:46:36;;;;;;;7.40;4.75;;;3.50;99.90;;;;;;5007261;28;20132;-75
2022/01/26 08:49:03;;;;;;;21.40;8.88;;;3.50;99.90;;;;;;4990744;28;20046;-75
2022/01/26 08:51:29;;;;;;;20.83;9.15;;;3.50;99.90;;;;;;5007244;28;20410;-75
2022/01/26 08:53:54;;;;;;;18.98;11.38;;;3.50;99.90;;;;;;4990801;28;20045;-75
2022/01/26 08:56:20;;;;;;;9.23;5.13;;;3.60;99.90;;;;;;5002785;28;20038;-75
2022/01/26 08:58:46;;;;;;;17.75;7.18;;;3.60;99.90;;;;;;4990871;28;20057;-75
2022/01/26 09:01:11;;;;;;;41.17;17.35;;;3.70;99.90;;;;;;4990468;28;20457;-75
2022/01/26 09:03:39;;;;;;;46.80;14.50;;;3.70;99.90;;;;;;5006899;28;20041;-74
2022/01/26 09:06:09;;;;;;;31.58;15.75;;;3.70;99.90;;;;;;5006609;28;20053;-74
2022/01/26 09:08:38;;;;;;;70.20;23.80;;;3.80;99.90;;;;;;5023345;28;20083;-75
2022/01/26 09:11:04;;;;;;;42.40;16.45;;;3.80;99.90;;;;;;5013742;28;20068;-75
2022/01/26 09:13:31;;;;;;;29.95;11.63;;;3.90;99.90;;;;;;5010160;28;20083;-74
2022/01/26 09:15:57;;;;;;;47.85;17.73;;;3.90;99.90;;;;;;5026552;28;20124;-74
2022/01/26 09:18:33;;;;;;;20.95;9.15;;;3.90;99.90;;;;;;5006189;28;20078;-75
2022/01/26 09:20:59;;;;;;;35.55;15.80;;;4.00;99.90;;;;;;5006716;28;20560;-75
2022/01/26 09:23:25;;;;;;;41.63;17.30;;;4.00;99.90;;;;;;4998048;28;20085;-75
2022/01/26 09:25:50;;;;;;;40.10;19.02;;;4.00;99.90;;;;;;5006729;28;20050;-74
2022/01/26 09:28:16;;;;;;;38.40;15.30;;;4.00;99.90;;;;;;4990819;28;20053;-74
2022/01/26 09:30:42;;;;;;;43.22;20.85;;;4.10;99.90;;;;;;4989974;28;20126;-75
2022/01/26 09:33:07;;;;;;;34.47;16.58;;;4.10;99.90;;;;;;4990582;28;20702;-75
2022/01/26 09:35:33;;;;;;;31.88;15.68;;;4.10;99.90;;;;;;5006745;28;20046;-75
2022/01/26 09:37:58;;;;;;;36.33;14.15;;;4.10;99.90;;;;;;5006494;28;20081;-75
2022/01/26 09:40:24;;;;;;;33.85;13.05;;;4.20;99.90;;;;;;5006478;28;20033;-74
2022/01/26 09:42:51;;;;;;;25.98;9.23;;;4.20;99.90;;;;;;5005583;28;20049;-75
2022/01/26 09:45:17;;;;;;;21.10;10.02;;;4.20;99.90;;;;;;5009695;28;20071;-75
2022/01/26 09:47:44;;;;;;;48.63;20.63;;;4.20;99.90;;;;;;5005402;28;20418;-75
2022/01/26 09:50:10;;;;;;;34.50;14.77;;;4.20;99.90;;;;;;5006436;28;20137;-74
2022/01/26 09:52:41;;;;;;;73.82;32.35;;;4.20;99.90;;;;;;5006388;28;20148;-74
2022/01/26 09:55:08;;;;;;;11.35;6.32;;;4.20;99.90;;;;;;5011766;28;20046;-75
2022/01/26 09:57:34;;;;;;;25.15;11.15;;;4.30;99.90;;;;;;5006451;28;20096;-74
2022/01/26 09:59:59;;;;;;;53.50;19.38;;;4.30;99.90;;;;;;4989443;28;20042;-74
2022/01/26 10:02:28;;;;;;;44.05;15.68;;;4.30;99.90;;;;;;5006296;28;20045;-74
2022/01/26 10:05:06;;;;;;;20.25;9.68;;;4.40;99.90;;;;;;5021369;28;20040;-74
2022/01/26 10:08:22;;;;;;;28.23;12.13;;;4.40;99.90;;;;;;4993485;28;20042;-75
2022/01/26 10:18:57;;;;;;;21.27;10.52;;;4.40;99.90;;;;;;5009777;28;20080;-74
2022/01/26 10:21:24;;;;;;;22.52;12.80;;;4.50;99.90;;;;;;5009761;28;20494;-75
2022/01/26 10:23:52;;;;;;;48.83;18.80;;;4.50;99.90;;;;;;5009284;28;20046;-75
2022/01/26 10:26:19;;;;;;;4.18;3.53;;;4.50;99.90;;;;;;5012566;28;20057;-75
2022/01/26 10:29:04;;;;;;;55.75;22.70;;;4.50;99.90;;;;;;5012815;28;20427;-74
2022/01/26 10:31:34;;;;;;;31.00;12.23;;;4.50;99.90;;;;;;5013149;28;20397;-74
2022/01/26 10:34:06;;;;;;;79.00;32.38;;;4.60;99.90;;;;;;5012477;28;20077;-74
2022/01/26 10:36:54;;;;;;;78.60;29.73;;;4.60;99.90;;;;;;5025326;28;20041;-74
2022/01/26 10:39:28;;;;;;;72.57;27.25;;;4.70;99.90;;;;;;5026171;28;20133;-74
2022/01/26 10:41:59;;;;;;;32.25;13.38;;;4.70;99.90;;;;;;5008143;28;20077;-74
2022/01/26 10:44:29;;;;;;;29.90;12.52;;;4.70;99.90;;;;;;5009276;28;20050;-74
2022/01/26 10:46:59;;;;;;;32.22;13.13;;;4.70;99.90;;;;;;5009001;28;20058;-75
2022/01/26 10:52:32;;;;;;;38.10;14.52;;;4.80;99.90;;;;;;5025238;28;20492;-74
2022/01/26 10:54:58;;;;;;;51.40;19.90;;;4.80;99.90;;;;;;5028910;28;20402;-74
2022/01/26 10:57:25;;;;;;;66.57;22.98;;;4.80;99.90;;;;;;5028343;28;20120;-74
2022/01/26 10:59:51;;;;;;;51.95;16.05;;;4.80;99.90;;;;;;5017759;28;20050;-74
2022/01/26 11:02:26;;;;;;;40.20;14.70;;;4.80;99.90;;;;;;5006767;28;20660;-74
2022/01/26 11:04:52;;;;;;;52.58;18.63;;;4.80;99.90;;;;;;5000806;28;20053;-75
2022/01/26 11:07:18;;;;;;;14.65;4.90;;;4.70;99.90;;;;;;4992149;28;20054;-75
2022/01/26 11:09:47;;;;;;;31.27;11.23;;;4.70;99.90;;;;;;5008704;28;20038;-74
2022/01/26 11:12:16;;;;;;;15.60;8.45;;;4.70;99.90;;;;;;5003422;28;21058;-74
2022/01/26 11:14:44;;;;;;;30.30;12.77;;;4.70;99.90;;;;;;5027302;28;20046;-74
2022/01/26 11:17:22;;;;;;;43.70;16.00;;;4.70;99.90;;;;;;5003297;28;20073;-74
2022/01/26 11:19:48;;;;;;;12.82;5.72;;;4.70;99.90;;;;;;4998068;28;20037;-74
2022/01/26 11:22:14;;;;;;;67.85;21.75;;;4.60;99.90;;;;;;5024090;28;20249;-74
2022/01/26 11:24:52;;;;;;;42.65;13.07;;;4.60;99.90;;;;;;5002794;28;20049;-74
2022/01/26 11:27:18;;;;;;;50.28;19.05;;;4.60;99.90;;;;;;5020421;28;20140;-74
2022/01/26 11:29:48;;;;;;;15.57;5.85;;;4.60;99.90;;;;;;5006623;28;20060;-74
2022/01/26 11:32:34;;;;;;;44.35;18.08;;;4.60;99.90;;;;;;5031236;28;20040;-74
2022/01/26 11:35:04;;;;;;;29.70;11.10;;;4.60;99.90;;;;;;5018677;28;20863;-75
2022/01/26 11:37:39;;;;;;;31.50;11.52;;;4.60;99.90;;;;;;5026072;28;20052;-74
2022/01/26 11:45:34;;;;;;;60.33;25.35;;;4.70;99.90;;;;;;5020827;28;20137;-74
2022/01/26 11:48:09;;;;;;;;;;;4.70;99.90;;;;;;4999728;28;20461;-75
2022/01/26 11:50:37;;;;;;;34.17;12.77;;;4.80;99.90;;;;;;5003841;28;19930;-74
2022/01/26 11:53:09;;;;;;;20.08;8.75;;;4.70;99.90;;;;;;5000572;28;20044;-74
2022/01/26 11:55:46;;;;;;;27.17;9.75;;;4.70;99.90;;;;;;5008417;28;20072;-74
2022/01/26 11:58:29;;;;;;;12.98;3.78;;;4.70;99.90;;;;;;5009430;28;20767;-74
2022/01/26 12:01:13;;;;;;;20.58;9.02;;;4.70;99.90;;;;;;4988437;28;20050;-74
2022/01/26 12:03:48;;;;;;;49.95;19.42;;;4.70;99.90;;;;;;5008467;28;20083;-74
2022/01/26 12:06:26;;;;;;;7.13;3.47;;;4.70;99.90;;;;;;5021322;28;20041;-75
2022/01/26 12:08:55;;;;;;;33.33;9.60;;;4.70;99.90;;;;;;5023474;28;20041;-74
2022/01/26 12:11:22;;;;;;;19.55;8.20;;;4.80;99.90;;;;;;4998015;28;20056;-74
2022/01/26 12:13:51;;;;;;;18.17;8.55;;;4.80;99.90;;;;;;5005066;28;20120;-75
2022/01/26 12:16:22;;;;;;;29.02;12.15;;;4.80;99.90;;;;;;5020068;28;20132;-75
2022/01/26 12:36:00;;;;;;;48.47;17.55;;;5.00;99.90;;;;;;5014830;28;20049;-75
2022/01/26 12:38:40;;;;;;;13.40;6.97;;;4.90;99.90;;;;;;5011686;28;20041;-76
2022/01/26 12:43:48;;;;;;;24.98;9.02;;;4.90;99.90;;;;;;5023181;28;20050;-74
2022/01/26 12:46:15;;;;;;;39.05;16.90;;;4.90;99.90;;;;;;5010273;28;20080;-75
2022/01/26 12:48:46;;;;;;;14.75;6.72;;;4.90;99.90;;;;;;5009240;28;20144;-76
2022/01/26 12:51:12;;;;;;;29.27;11.70;;;4.90;99.90;;;;;;5015680;28;20042;-75
2022/01/26 12:53:40;;;;;;;36.05;13.25;;;4.90;99.90;;;;;;5003296;28;20049;-75
2022/01/26 12:56:11;;;;;;;57.55;21.15;;;4.90;99.90;;;;;;5011516;28;20037;-75
2022/01/26 12:58:40;;;;;;;56.28;24.35;;;4.90;99.90;;;;;;5025086;28;20053;-75
2022/01/26 13:01:17;;;;;;;7.43;4.20;;;4.90;99.90;;;;;;5007725;28;20099;-75
2022/01/26 13:03:45;;;;;;;14.60;8.32;;;5.00;99.90;;;;;;4995552;28;20084;-75
2022/01/26 13:06:24;;;;;;;46.45;17.50;;;5.00;99.90;;;;;;5016454;28;20084;-75
2022/01/26 13:08:52;;;;;;;21.75;9.27;;;5.00;99.90;;;;;;4996583;28;20175;-75
2022/01/26 13:11:29;;;;;;;35.30;10.90;;;5.10;99.90;;;;;;5019511;28;20042;-75
2022/01/26 13:14:17;;;;;;;35.38;13.77;;;5.10;99.90;;;;;;5005026;28;20090;-75
2022/01/26 13:17:33;;;;;;;4.70;2.70;;;5.10;99.90;;;;;;5007500;28;20044;-75
2022/01/26 13:20:25;;;;;;;9.52;5.25;;;5.10;99.90;;;;;;5017875;28;20088;-75
2022/01/26 13:30:51;;;;;;;21.05;8.77;;;5.20;99.90;;;;;;5022717;28;20049;-75
2022/01/26 13:33:54;;;;;;;15.68;7.25;;;5.30;99.90;;;;;;5019313;28;20080;-75
2022/01/26 13:36:27;;;;;;;12.70;4.35;;;5.30;99.90;;;;;;5020596;28;20045;-75
2022/01/26 13:39:15;;;;;;;17.95;6.68;;;5.40;99.90;;;;;;5022657;28;20064;-75
2022/01/26 13:44:42;;;;;;;26.73;12.43;;;5.50;99.90;;;;;;5013478;28;20430;-75
2022/01/26 13:53:07;;;;;;;30.15;12.02;;;5.50;99.90;;;;;;5023462;28;20045;-75
2022/01/26 14:00:29;;;;;;;22.83;9.20;;;5.60;99.90;;;;;;5020658;28;20050;-75
2022/01/26 14:02:55;;;;;;;21.45;9.68;;;5.50;99.90;;;;;;5020492;28;20359;-75
2022/01/26 14:05:21;;;;;;;2.58;2.42;;;5.50;99.90;;;;;;5018693;28;20573;-75
2022/01/26 14:07:47;;;;;;;31.58;13.40;;;5.50;99.90;;;;;;5010993;28;20068;-75
2022/01/26 14:10:12;;;;;;;23.10;11.30;;;5.50;99.90;;;;;;5024423;28;20049;-75
2022/01/26 14:12:45;;;;;;;31.90;12.13;;;5.50;99.90;;;;;;5012681;28;20049;-75
2022/01/26 14:15:11;;;;;;;8.35;4.10;;;5.60;99.90;;;;;;5010873;28;20053;-75
2022/01/26 14:17:56;;;;;;;29.27;9.27;;;5.50;99.90;;;;;;5007902;28;20042;-75
2022/01/26 14:23:16;;;;;;;23.02;9.95;;;5.60;99.90;;;;;;5025016;28;20516;-75
2022/01/26 14:25:45;;;;;;;30.60;14.70;;;5.60;99.90;;;;;;5048570;28;20045;-75
2022/01/26 14:28:12;;;;;;;27.50;8.95;;;5.60;99.90;;;;;;5022256;28;20061;-75
2022/01/26 14:36:21;;;;;;;13.55;5.93;;;5.50;99.90;;;;;;5023218;28;20141;-75
2022/01/26 15:00:18;;;;;;;24.98;9.50;;;5.60;99.90;;;;;;5012056;28;20046;-75
2022/01/26 15:30:23;;;;;;;24.95;9.25;;;5.70;99.90;;;;;;4962551;28;20075;-76
2022/01/26 15:33:18;;;;;;;29.30;13.13;;;5.70;99.90;;;;;;5020645;28;20117;-76
2022/01/26 15:41:44;;;;;;;6.13;4.70;;;5.70;99.90;;;;;;5024018;28;20057;-76
2022/01/26 15:52:17;;;;;;;45.85;16.50;;;5.70;99.90;;;;;;5023907;28;20063;-76
2022/01/26 16:06:08;;;;;;;19.60;9.13;;;5.70;99.90;;;;;;4983663;28;20501;-76
2022/01/26 16:16:58;;;;;;;10.18;6.25;;;5.70;99.90;;;;;;4984036;28;20108;-76
2022/01/26 16:38:49;;;;;;;14.50;6.75;;;5.70;99.90;;;;;;5020554;28;20136;-74
2022/01/26 17:24:23;;;;;;;34.90;11.52;;;5.80;99.90;;;;;;5016414;28;20095;-74
2022/01/26 18:05:28;;;;;;;9.93;4.82;;;6.00;99.90;;;;;;5014644;28;20041;-75
2022/01/26 18:13:14;;;;;;;34.75;16.52;;;6.10;99.90;;;;;;5021287;28;20509;-75
2022/01/26 18:15:49;;;;;;;10.77;4.95;;;6.10;99.90;;;;;;5004852;28;20580;-75
2022/01/26 18:26:46;;;;;;;9.90;4.28;;;6.30;99.90;;;;;;5017483;28;20681;-75
2022/01/26 18:50:54;;;;;;;29.05;11.43;;;6.40;99.90;;;;;;5016276;28;20415;-75
2022/01/26 18:53:19;;;;;;;8.63;4.88;;;6.40;99.90;;;;;;5021903;28;20195;-75
2022/01/26 18:55:45;;;;;;;34.97;15.73;;;6.40;99.90;;;;;;4993059;28;20049;-75
2022/01/26 18:58:11;;;;;;;29.80;13.90;;;6.40;99.90;;;;;;5024715;28;20492;-75
2022/01/26 19:00:37;;;;;;;20.10;9.70;;;6.40;99.90;;;;;;5005046;28;20045;-74
2022/01/26 19:03:04;;;;;;;22.90;7.80;;;6.40;99.90;;;;;;4989047;28;20068;-75
2022/01/26 19:05:29;;;;;;;17.80;8.05;;;6.40;99.90;;;;;;5016485;28;20084;-75
2022/01/26 19:07:57;;;;;;;19.92;8.45;;;6.50;99.90;;;;;;5017932;28;20076;-74
2022/01/26 19:10:23;;;;;;;20.52;9.90;;;6.40;99.90;;;;;;5018567;28;20100;-74
2022/01/26 19:12:50;;;;;;;15.98;6.43;;;6.50;99.90;;;;;;5004096;28;20037;-75
2022/01/26 19:15:19;;;;;;;12.27;5.32;;;6.50;99.90;;;;;;5020649;28;20064;-75
2022/01/26 19:17:57;;;;;;;20.55;6.90;;;6.50;99.90;;;;;;5020554;28;20119;-75